createdAt,value
2018-11-07T00:00:01.943Z,89.74
2018-11-07T00:05:01.312Z,89.75
2018-11-07T00:10:02.569Z,89.75
2018-11-07T00:15:01.851Z,89.78
2018-11-07T00:20:02.157Z,89.92
2018-11-07T00:25:01.440Z,90.09
2018-11-07T00:30:01.983Z,90.13
2018-11-07T00:35:01.675Z,90.07
2018-11-07T00:40:02.133Z,89.97
2018-11-07T00:45:01.431Z,90.07
2018-11-07T00:50:01.737Z,90.25
2018-11-07T00:55:02.008Z,90.38
2018-11-07T01:00:01.342Z,90.52
2018-11-07T01:05:01.628Z,90.93
2018-11-07T01:10:01.897Z,91.22
2018-11-07T01:15:02.195Z,91.32
2018-11-07T01:20:01.479Z,91.35
2018-11-07T01:25:01.753Z,91.9
2018-11-07T01:30:02.010Z,92.54
2018-11-07T01:35:01.385Z,92.69
2018-11-07T01:40:01.912Z,93.27
2018-11-07T01:45:01.216Z,93.65
2018-11-07T01:50:01.702Z,93.79
2018-11-07T01:55:02.007Z,93.67
2018-11-07T02:00:01.416Z,93.57
2018-11-07T02:05:01.752Z,93.77
2018-11-07T02:10:09.022Z,94.01
2018-11-07T02:15:01.426Z,93.92
2018-11-07T02:20:01.577Z,93.87
2018-11-07T02:25:01.870Z,93.8
2018-11-07T02:30:02.169Z,93.56
2018-11-07T02:35:01.496Z,93.94
2018-11-07T02:40:01.879Z,94.8
2018-11-07T02:45:02.150Z,95.02
2018-11-07T02:50:01.458Z,94.82
2018-11-07T02:55:01.755Z,94.54
2018-11-07T03:00:02.030Z,94.07
2018-11-07T03:05:01.363Z,93.89
2018-11-07T03:10:01.907Z,93.63
2018-11-07T03:15:01.388Z,93.82
2018-11-07T03:20:01.671Z,93.99
2018-11-07T03:25:01.927Z,93.88
2018-11-07T03:30:01.251Z,93.38
2018-11-07T03:35:01.572Z,92.84
2018-11-07T03:40:02.113Z,92.26
2018-11-07T03:45:01.395Z,92.1
2018-11-07T03:50:01.359Z,91.94
2018-11-07T03:55:01.795Z,91.95
2018-11-07T04:00:02.314Z,91.86
2018-11-07T04:05:01.581Z,91.16
2018-11-07T04:10:01.941Z,90.68
2018-11-07T04:15:01.294Z,90.47
2018-11-07T04:20:01.619Z,90.17
2018-11-07T04:25:01.894Z,90.23
2018-11-07T04:30:02.191Z,90.3
2018-11-07T04:35:01.468Z,90.22
2018-11-07T04:40:01.794Z,90.31
2018-11-07T04:45:02.047Z,90.45
2018-11-07T04:50:01.354Z,90.64
2018-11-07T04:55:01.668Z,90.92
2018-11-07T05:00:02.101Z,90.94
2018-11-07T05:05:01.432Z,91.06
2018-11-07T05:10:01.791Z,91.21
2018-11-07T05:15:02.040Z,91.29
2018-11-07T05:20:01.348Z,91.47
2018-11-07T05:25:01.655Z,91.29
2018-11-07T05:30:01.938Z,91.05
2018-11-07T05:35:01.305Z,90.91
2018-11-07T05:40:01.398Z,90.84
2018-11-07T05:45:01.696Z,91.02
2018-11-07T05:50:01.998Z,91.23
2018-11-07T05:55:01.291Z,91.23
2018-11-07T06:00:01.568Z,91.14
2018-11-07T06:05:01.874Z,91
2018-11-07T06:10:02.139Z,90.78
2018-11-07T06:15:01.402Z,90.78
2018-11-07T06:20:01.723Z,90.71
2018-11-07T06:25:02.300Z,90.67
2018-11-07T06:30:01.965Z,90.26
2018-11-07T06:35:01.258Z,90.04
2018-11-07T06:40:01.544Z,89.31
2018-11-07T06:45:01.869Z,88.6
2018-11-07T06:50:02.123Z,88.3
2018-11-07T06:55:01.403Z,88.39
2018-11-07T07:00:01.708Z,88.28
2018-11-07T07:05:02.003Z,88.04
2018-11-07T07:10:01.287Z,87.97
2018-11-07T07:15:01.592Z,87.89
2018-11-07T07:20:01.913Z,87.49
2018-11-07T07:25:02.183Z,87.24
2018-11-07T07:30:01.754Z,87.08
2018-11-07T07:35:01.382Z,86.87
2018-11-07T07:40:01.822Z,86.39
2018-11-07T07:45:01.268Z,85.93
2018-11-07T07:50:01.578Z,85.2
2018-11-07T07:55:01.890Z,85.02
2018-11-07T08:00:02.210Z,84.5
2018-11-07T08:05:01.530Z,84.3
2018-11-07T08:10:01.835Z,83.95
2018-11-07T08:15:02.098Z,83.89
2018-11-07T08:20:01.420Z,83.69
2018-11-07T08:25:01.686Z,83.29
2018-11-07T08:30:01.940Z,82.54
2018-11-07T08:35:01.244Z,82.1
2018-11-07T08:40:01.622Z,81.34
2018-11-07T08:45:01.928Z,80.61
2018-11-07T08:50:01.208Z,80.42
2018-11-07T08:55:01.616Z,79.41
2018-11-07T09:00:02.108Z,78.68
2018-11-07T09:05:01.387Z,77.8
2018-11-07T09:10:01.686Z,77.35
2018-11-07T09:15:01.993Z,76.81
2018-11-07T09:20:01.558Z,76.29
2018-11-07T09:25:02.085Z,75.81
2018-11-07T09:30:01.357Z,75.35
2018-11-07T09:35:01.747Z,74.92
2018-11-07T09:40:02.012Z,74.64
2018-11-07T09:45:01.271Z,74.07
2018-11-07T09:50:01.560Z,73.88
2018-11-07T09:55:01.889Z,73.4
2018-11-07T10:00:02.123Z,73.3
2018-11-07T10:05:01.438Z,73.3
2018-11-07T10:10:01.879Z,72.68
2018-11-07T10:15:01.257Z,71.01
2018-11-07T10:20:01.551Z,69.49
2018-11-07T10:25:01.876Z,68.19
2018-11-07T10:30:03.384Z,65.72
2018-11-07T10:35:01.691Z,63.04
2018-11-07T10:40:02.133Z,62.76
2018-11-07T10:45:01.406Z,61.46
2018-11-07T10:50:01.767Z,61.81
2018-11-07T10:55:02.067Z,59.78
2018-11-07T11:00:01.344Z,59.8
2018-11-07T11:05:01.962Z,58.98
2018-11-07T11:10:01.367Z,58.47
2018-11-07T11:15:01.680Z,58.31
2018-11-07T11:20:01.954Z,64.32
2018-11-07T11:25:01.320Z,64.88
2018-11-07T11:30:01.606Z,65.5
2018-11-07T11:35:02.281Z,63.89
2018-11-07T11:40:01.929Z,61.32
2018-11-07T11:45:01.248Z,60.16
2018-11-07T11:50:01.552Z,59.72
2018-11-07T11:55:01.870Z,60.14
2018-11-07T12:00:03.161Z,59.04
2018-11-07T12:05:01.399Z,59.64
2018-11-07T12:10:01.696Z,59.74
2018-11-07T12:15:02.118Z,59.67
2018-11-07T12:20:01.481Z,59.81
2018-11-07T12:25:01.778Z,60.13
2018-11-07T12:30:02.023Z,61.54
2018-11-07T12:35:01.305Z,64.16
2018-11-07T12:40:01.638Z,66.06
2018-11-07T12:45:01.956Z,67.1
2018-11-07T12:50:01.800Z,67.8
2018-11-07T12:55:01.439Z,68.05
2018-11-07T13:00:01.766Z,68.16
2018-11-07T13:05:02.035Z,67.72
2018-11-07T13:10:01.324Z,67.89
2018-11-07T13:15:01.612Z,67.58
2018-11-07T13:20:01.924Z,67.79
2018-11-07T13:25:01.215Z,68.04
2018-11-07T13:30:01.567Z,68.18
2018-11-07T13:35:02.229Z,68.15
2018-11-07T13:40:01.675Z,68.21
2018-11-07T13:45:01.963Z,68.21
2018-11-07T13:50:01.240Z,68.12
2018-11-07T13:55:01.589Z,67.78
2018-11-07T14:00:01.889Z,65.46
2018-11-07T14:05:01.198Z,63.56
2018-11-07T14:10:01.499Z,62.09
2018-11-07T14:15:01.845Z,60.76
2018-11-07T14:20:02.150Z,60.74
2018-11-07T14:25:01.445Z,60.81
2018-11-07T14:30:01.748Z,60.65
2018-11-07T14:35:02.043Z,61.04
2018-11-07T14:40:01.347Z,61.24
2018-11-07T14:45:01.654Z,61.08
2018-11-07T14:50:01.952Z,61.1
2018-11-07T14:55:01.287Z,61.04
2018-11-07T15:00:01.855Z,61.28
2018-11-07T15:05:02.136Z,61.24
2018-11-07T15:10:01.425Z,61.22
2018-11-07T15:15:01.750Z,61.87
2018-11-07T15:20:02.020Z,62.33
2018-11-07T15:25:01.621Z,62.67
2018-11-07T15:30:02.179Z,62.82
2018-11-07T15:35:01.468Z,62.47
2018-11-07T15:40:01.940Z,62.47
2018-11-07T15:45:01.266Z,62.39
2018-11-07T15:50:01.708Z,62.87
2018-11-07T15:55:01.998Z,63.45
2018-11-07T16:00:01.531Z,63.24
2018-11-07T16:05:02.004Z,63.4
2018-11-07T16:10:01.476Z,63.7
2018-11-07T16:15:01.902Z,63.89
2018-11-07T16:20:02.143Z,64.2
2018-11-07T16:25:01.440Z,64.81
2018-11-07T16:30:01.737Z,64.77
2018-11-07T16:35:02.011Z,65.19
2018-11-07T16:40:01.294Z,65.42
2018-11-07T16:45:01.623Z,66.65
2018-11-07T16:50:01.921Z,67.09
2018-11-07T16:55:01.203Z,67.83
2018-11-07T17:00:01.478Z,68.22
2018-11-07T17:05:01.895Z,68.92
2018-11-07T17:10:01.281Z,69.49
2018-11-07T17:15:01.567Z,70.32
2018-11-07T17:20:01.886Z,71.34
2018-11-07T17:25:02.147Z,72.13
2018-11-07T17:30:01.424Z,71.94
2018-11-07T17:35:01.747Z,72.06
2018-11-07T17:40:02.008Z,72.53
2018-11-07T17:45:01.383Z,72.92
2018-11-07T17:50:01.667Z,73.23
2018-11-07T17:55:01.969Z,73.59
2018-11-07T18:00:01.280Z,74.62
2018-11-07T18:05:01.646Z,74.39
2018-11-07T18:10:01.928Z,74.68
2018-11-07T18:15:01.220Z,74.81
2018-11-07T18:20:01.539Z,75.01
2018-11-07T18:25:01.875Z,75.02
2018-11-07T18:30:02.137Z,75.13
2018-11-07T18:35:01.675Z,75.66
2018-11-07T18:40:02.049Z,75.78
2018-11-07T18:45:01.348Z,75.71
2018-11-07T18:50:01.832Z,75.71
2018-11-07T18:55:02.122Z,75.89
2018-11-07T19:00:01.474Z,76.04
2018-11-07T19:05:01.789Z,76.51
2018-11-07T19:10:02.075Z,76.8
2018-11-07T19:15:01.356Z,77.22
2018-11-07T19:20:01.686Z,77.41
2018-11-07T19:25:01.970Z,77.38
2018-11-07T19:30:01.264Z,77.51
2018-11-07T19:35:01.612Z,77.64
2018-11-07T19:40:02.021Z,78.02
2018-11-07T19:45:01.405Z,78.15
2018-11-07T19:50:01.714Z,78.34
2018-11-07T19:55:02.220Z,78.51
2018-11-07T20:00:01.666Z,78.59
2018-11-07T20:05:01.953Z,78.77
2018-11-07T20:10:01.261Z,79.09
2018-11-07T20:15:01.685Z,79.35
2018-11-07T20:20:01.974Z,79.72
2018-11-07T20:25:01.253Z,79.83
2018-11-07T20:30:01.520Z,80.12
2018-11-07T20:35:01.800Z,80.28
2018-11-07T20:40:02.040Z,80.21
2018-11-07T20:45:01.279Z,79.93
2018-11-07T20:50:01.531Z,80.12
2018-11-07T20:55:02.024Z,80.37
2018-11-07T21:00:01.532Z,80.79
2018-11-07T21:05:01.778Z,81
2018-11-07T21:10:02.013Z,80.86
2018-11-07T21:15:01.525Z,81.15
2018-11-07T21:20:01.778Z,81.25
2018-11-07T21:25:02.025Z,81.06
2018-11-07T21:30:01.286Z,81.06
2018-11-07T21:35:01.723Z,81.06
2018-11-07T21:40:02.152Z,81.06
2018-11-07T21:45:01.390Z,81.17
2018-11-07T21:50:01.671Z,81.35
2018-11-07T21:55:01.937Z,81.56
2018-11-07T22:00:01.214Z,82.24
2018-11-07T22:05:01.506Z,82.63
2018-11-07T22:10:01.870Z,82.44
2018-11-07T22:15:02.123Z,82.6
2018-11-07T22:20:01.427Z,82.96
2018-11-07T22:25:01.684Z,83.01
2018-11-07T22:30:01.967Z,82.68
2018-11-07T22:35:01.213Z,83.08
2018-11-07T22:40:01.443Z,83.18
2018-11-07T22:45:01.684Z,83.32
2018-11-07T22:50:01.961Z,82.89
2018-11-07T22:55:01.210Z,82.13
2018-11-07T23:00:01.463Z,82.59
2018-11-07T23:05:01.720Z,82.95
2018-11-07T23:10:02.012Z,82.96
2018-11-07T23:15:01.263Z,82.95
2018-11-07T23:20:01.525Z,83.12
2018-11-07T23:25:01.785Z,82.41
2018-11-07T23:30:02.046Z,81.41
2018-11-07T23:35:01.345Z,81.05
2018-11-07T23:40:01.610Z,80.93
2018-11-07T23:45:01.857Z,81.63
2018-11-07T23:50:02.117Z,82.31
2018-11-07T23:55:01.386Z,82.7
